• Join FlightAware (Why Join?)
  • Login
  • US Flag 
07:47AM EDT


 

Airport Tracker/Info


-or-


 

Live Flight TrackerFlight Track Log ✈ N603RF ✈ 26-Jul-2013 ✈ KALB - KRIC

Flight Track Log - Related Links

Times and Time Zones

All times are in EDT time to prevent confusion due to time zone crossing. See the N603RF flight status page for this flight to view local times or setup timezone preferences in your user account.

Time Position Orientation Groundspeed Altitude Reporting Facility
EDT Latitude Longitude Course Direction KTS MPH feet Rate Location/Type
08:14PM 42.8561 -73.8789 332° Northwest 241 277 6,700  Level Boston Center
08:15PM 42.8842 -73.9617 295° West 247 284 9,200 2,400 Climbing Boston Center
08:16PM 42.9158 -74.0789 290° West 277 319 12,000 2,400 Climbing Boston Center
08:18PM 42.8439 -74.1533 217° Southwest 268 308 14,200 1,980 Climbing Boston Center
08:19PM 42.7586 -74.1425 175° South 296 341 16,100 1,920 Climbing Boston Center
08:20PM 42.6506 -74.1253 173° South 342 394 18,100 1,980 Climbing Boston Center
08:20PM 42.5486 -74.1086 173° South 363 418 20,100 1,980 Climbing Boston Center
08:21PM 42.4425 -74.0917 173° South 369 425 22,100 1,680 Climbing Boston Center
08:22PM 42.3367 -74.0719 172° South 381 438 23,600 1,380 Climbing Boston Center
08:24PM 42.2264 -74.0522 172° South 393 452 25,000 1,380 Climbing Boston Center
08:25PM 42.1100 -74.0325 173° South 407 468 26,400 1,320 Climbing Boston Center
08:25PM 41.9914 -74.0100 172° South 422 486 27,700 1,080 Climbing Boston Center
08:27PM 41.8156 -73.9772 172° South 427 491 29,200 1,080 Climbing New York Center
08:28PM 41.6892 -73.9544 172° South 447 514 30,500 1,320 Climbing New York Center
08:29PM 41.5506 -73.9283 172° South 460 529 31,900 720 Climbing New York Center
08:30PM 41.4178 -73.9056 173° South 472 543 32,000  Climbing New York Center
08:31PM 41.2831 -73.8828 173° South 485 558 32,000  Level New York Center
08:32PM 41.1483 -73.8628 174° South 495 570 32,000  Level New York Center
08:33PM 41.0114 -73.8372 172° South 495 570 32,000  Level New York Center
08:34PM 40.8761 -73.8367 180° South 500 575 32,000  Level New York Center
08:35PM 40.7594 -73.9108 206° Southwest 469 540 32,000  Level New York Center
08:36PM 40.6550 -74.0017 213° Southwest 455 524 32,000  Level New York Center
08:37PM 40.5483 -74.0894 212° Southwest 455 524 32,000  Level New York Center
08:38PM 40.4417 -74.1797 213° Southwest 461 531 32,000  Level New York Center
08:39PM 40.3369 -74.2697 213° Southwest 461 531 32,000  Level New York Center
08:40PM 40.2514 -74.3361 211° Southwest 461 531 32,000  Level New York Center
08:42PM 40.0336 -74.5158 212° Southwest 444 511 32,000  Level Washington Center
08:43PM 39.9281 -74.6011 212° Southwest 444 511 32,000  Level Washington Center
08:44PM 39.8225 -74.6864 212° Southwest 451 519 32,000  Level Washington Center
08:45PM 39.7150 -74.7714 211° Southwest 451 519 32,000  Level Washington Center
08:46PM 39.6114 -74.8589 213° Southwest 451 519 32,000 -660 Level Washington Center
08:47PM 39.5097 -74.9433 213° Southwest 451 519 30,700 -1,380 Descending Washington Center
08:48PM 39.4039 -75.0303 212° Southwest 451 519 29,300 -1,800 Descending Washington Center
08:49PM 39.3125 -75.1222 218° Southwest 441 507 27,200 -2,100 Descending Washington Center
08:50PM 39.2317 -75.2217 224° Southwest 423 487 25,100 -2,160 Descending Washington Center
08:51PM 39.1547 -75.3214 225° Southwest 402 463 23,000 -1,560 Descending Washington Center
08:52PM 39.0778 -75.4178 224° Southwest 389 448 22,000 -540 Descending Washington Center
08:53PM 39.0028 -75.5089 223° Southwest 384 442 22,000  Level Washington Center
08:54PM 38.9258 -75.6050 224° Southwest 384 442 22,000  Level Washington Center
08:55PM 38.8508 -75.6956 223° Southwest 384 442 22,000  Level Washington Center
08:56PM 38.7756 -75.7914 225° Southwest 384 442 22,000  Level Washington Center
08:57PM 38.6983 -75.8894 225° Southwest 384 442 22,000 -360 Level Washington Center
08:58PM 38.6208 -75.9822 223° Southwest 384 442 21,300 -1,560 Descending Washington Center
08:59PM 38.5475 -76.0669 222° Southwest 378 435 19,000 -2,280 Descending Washington Center
09:00PM 38.4783 -76.1567 225° Southwest 366 421 16,800 -1,500 Descending Washington Center
09:01PM 38.4050 -76.2461 224° Southwest 349 402 16,000 -420 Descending Washington Center
09:02PM 38.3356 -76.3303 224° Southwest 344 396 16,000  Level Washington Center
09:03PM 38.2747 -76.3983 221° Southwest 344 396 16,000  Level Washington Center
09:04PM 38.2053 -76.4794 223° Southwest 344 396 16,000 -180 Level Washington Center
09:05PM 38.1400 -76.5633 225° Southwest 339 390 15,700 -1,080 Descending Washington Center
09:06PM 38.0747 -76.6389 222° Southwest 334 384 13,900 -1,680 Descending Washington Center
09:07PM 38.0178 -76.7225 229° Southwest 328 377 12,400 -1,560 Descending Washington Center
09:08PM 37.9689 -76.8086 234° Southwest 317 365 10,900 -1,680 Descending Washington Center
09:09PM 37.9158 -76.8947 232° Southwest 293 337 9,100 -1,620 Descending Washington Center
09:10PM 37.8692 -76.9675 231° Southwest 285 328 7,700 -1,440 Descending Washington Center
09:11PM 37.8267 -77.0403 234° Southwest 268 308 6,300 -1,560 Descending Washington Center
09:12PM 37.7861 -77.1081 233° Southwest 262 302 4,700 -1,200 Descending Washington Center
09:13PM 37.7500 -77.1650 231° Southwest 241 277 4,000 -600 Descending Washington Center
09:15PM 37.6833 -77.2667 230° Southwest 177 204 2,700 -780 Descending Potomac TRACON
09:17PM 37.6333 -77.2833 195° South 171 197 1,300 -900 Descending Potomac TRACON
09:17PM 37.6000 -77.3000 202° Southwest 148 170 1,000 -240 Descending Potomac TRACON
09:18PM 37.5500 -77.3167 195° South 142 163 900 -360 Descending Potomac TRACON
09:19PM 37.5167 -77.3167 180° South 126 145 300 -600 Descending Potomac TRACON
09:21PM 37.5000 -77.3167 227° Southwest  Level FlightAware Approximate
09:28PM 37.5052 -77.3197 227° Southwest  Level Estimated
09:29PM 37.5000 -77.3167 227° Southwest  Level FlightAware Approximate
09:30PM 37.5052 -77.3197 227° Southwest  Level Estimated
09:31PM 37.5000 -77.3167 227° Southwest  Level FlightAware Approximate